Time;durP1;ratioP1;P1;durP2;ratioP2;P2;SDS_P1;SDS_P2;PMS_P1;PMS_P2;Temp;Humidity;BMP_temperature;BMP_pressure;BME280_temperature;BME280_humidity;BME280_pressure;Samples;Min_cycle;Max_cycle;Signal;HPM_P1;HPM_P2
2022/10/29 00:01:04;;;;;;;17.45;3.97;;;;;;;15.45;87.10;95579.13;5016164;28;20399;-88
2022/10/29 00:03:30;;;;;;;16.17;4.18;;;;;;;15.39;88.59;95583.63;4999133;28;20115;-88
2022/10/29 00:05:57;;;;;;;14.23;4.35;;;;;;;15.26;89.60;95577.06;4999066;28;20413;-88
2022/10/29 00:08:23;;;;;;;10.52;4.18;;;;;;;14.95;90.89;95574.47;4999278;28;20347;-88
2022/10/29 00:10:51;;;;;;;13.85;3.90;;;;;;;15.29;85.13;95570.47;4982910;28;20037;-88
2022/10/29 00:13:16;;;;;;;12.43;4.07;;;;;;;15.35;85.22;95572.03;4983290;28;20072;-88
2022/10/29 00:15:42;;;;;;;11.10;3.33;;;;;;;15.34;80.19;95573.88;4998845;28;20064;-88
2022/10/29 00:18:07;;;;;;;10.18;2.88;;;;;;;15.29;76.49;95578.41;4999082;28;20340;-89
2022/10/29 00:20:35;;;;;;;6.05;2.70;;;;;;;15.34;73.16;95575.75;4998852;28;20036;-88
2022/10/29 00:23:00;;;;;;;9.23;2.28;;;;;;;15.48;71.52;95565.41;4982874;28;20029;-88
2022/10/29 00:25:25;;;;;;;12.43;2.80;;;;;;;15.48;69.11;95574.13;4999379;28;20075;-88
2022/10/29 00:30:23;;;;;;;9.35;2.55;;;;;;;15.26;70.51;95569.16;5037326;28;20042;-96
2022/10/29 00:32:51;;;;;;;7.18;2.15;;;;;;;15.45;66.82;95566.75;5015878;28;20109;-95
2022/10/29 00:35:25;;;;;;;5.28;2.63;;;;;;;15.66;65.29;95564.03;5019999;28;20049;-95
2022/10/29 00:41:30;;;;;;;;;;;;;;;;;;;;;
2022/10/29 00:44:24;;;;;;;;;;;;;;;;;;;;;
2022/10/29 00:46:57;;;;;;;5.35;2.00;;;;;;;15.35;64.63;95556.19;5025765;28;20514;-96
2022/10/29 00:49:33;;;;;;;4.38;2.33;;;;;;;15.43;64.12;95552.22;5008746;28;20034;-96
2022/10/29 00:52:14;;;;;;;;;;;;;;;;;;;;;
2022/10/29 00:58:08;;;;;;;6.05;2.22;;;;;;;15.18;67.09;95559.94;4956207;28;20035;-95
2022/10/29 01:00:34;;;;;;;4.50;2.60;;;;;;;15.07;69.17;95556.53;5013363;28;20022;-96
2022/10/29 01:03:00;;;;;;;6.50;2.20;;;;;;;15.06;69.11;95554.13;5007521;28;20056;-96
2022/10/29 01:05:31;;;;;;;9.57;2.50;;;;;;;15.12;67.45;95560.97;5013254;28;20378;-96
2022/10/29 01:07:56;;;;;;;9.15;1.88;;;;;;;15.12;64.36;95568.91;5009794;28;20030;-95
2022/10/29 01:10:40;;;;;;;7.60;2.20;;;;;;;15.02;65.29;95564.44;5003766;28;20022;-95
2022/10/29 01:13:31;;;;;;;8.88;1.73;;;;;;;15.02;65.06;95567.06;5003620;28;20072;-95
2022/10/29 01:16:34;;;;;;;6.78;2.13;;;;;;;15.16;64.68;95567.31;5018571;28;20034;-96
2022/10/29 01:19:11;;;;;;;8.13;2.00;;;;;;;14.95;67.04;95561.28;5018817;28;20128;-96
2022/10/29 01:21:41;;;;;;;6.55;2.15;;;;;;;15.05;66.06;95555.97;5018402;28;20434;-95
2022/10/29 01:24:44;;;;;;;7.20;2.25;;;;;;;15.11;64.79;95547.00;5018472;28;20038;-95
2022/10/29 01:27:38;;;;;;;9.10;2.15;;;;;;;15.21;63.43;95548.06;5002235;28;20461;-96
2022/10/29 01:30:45;;;;;;;7.40;2.15;;;;;;;15.29;62.75;95536.94;5002400;28;20456;-96
2022/10/29 01:33:53;;;;;;;5.55;2.20;;;;;;;15.07;65.86;95535.41;5002046;28;20053;-96
2022/10/29 01:36:28;;;;;;;8.13;1.83;;;;;;;15.14;62.82;95540.41;4969900;28;20041;-96
2022/10/29 01:42:31;;;;;;;5.43;1.85;;;;;;;15.06;62.74;95531.19;5018440;28;20040;-95
2022/10/29 01:45:12;;;;;;;8.68;2.25;;;;;;;15.22;64.19;95531.16;5018055;28;20030;-96
2022/10/29 01:47:43;;;;;;;5.05;1.95;;;;;;;15.20;63.45;95517.41;5002348;28;20037;-95
2022/10/29 01:50:11;;;;;;;6.03;1.90;;;;;;;15.24;61.34;95515.84;5001771;28;20036;-95
2022/10/29 01:52:37;;;;;;;10.77;2.03;;;;;;;15.33;60.17;95522.13;5001462;28;20028;-96
2022/10/29 01:55:03;;;;;;;4.47;2.00;;;;;;;15.40;59.61;95516.56;5001452;28;20109;-95
2022/10/29 01:57:35;;;;;;;5.88;2.13;;;;;;;15.48;58.90;95516.03;5001675;28;20033;-96
2022/10/29 02:00:18;;;;;;;7.15;2.17;;;;;;;15.61;59.05;95512.00;5001882;28;20026;-95
2022/10/29 02:02:44;;;;;;;5.05;1.95;;;;;;;15.52;59.76;95506.50;5002031;28;20397;-95
2022/10/29 02:05:25;;;;;;;5.57;2.60;;;;;;;15.58;59.67;95504.63;5017928;28;20045;-95
2022/10/29 02:08:00;;;;;;;10.30;2.10;;;;;;;15.60;58.99;95501.72;5001048;28;20030;-96
2022/10/29 02:11:00;;;;;;;7.50;2.30;;;;;;;15.70;58.40;95496.38;5001802;28;20021;-95
2022/10/29 02:13:34;;;;;;;5.22;2.03;;;;;;;15.61;59.29;95493.50;5001509;28;20030;-94
2022/10/29 02:16:05;;;;;;;9.52;2.30;;;;;;;15.49;61.39;95490.38;5001465;28;20051;-95
2022/10/29 02:18:52;;;;;;;10.77;2.58;;;;;;;15.50;62.02;95494.63;5001425;28;20033;-94
2022/10/29 02:21:19;;;;;;;8.80;2.60;;;;;;;15.36;62.35;95492.56;5002227;28;20085;-94
2022/10/29 02:23:44;;;;;;;8.85;2.38;;;;;;;15.25;62.96;95488.38;5001043;28;20026;-95
2022/10/29 02:26:18;;;;;;;4.68;2.03;;;;;;;15.21;62.62;95484.69;5001040;28;20022;-95
2022/10/29 02:32:05;;;;;;;6.25;2.00;;;;;;;15.23;61.94;95488.63;5018205;28;20040;-95
2022/10/29 02:34:31;;;;;;;10.82;2.50;;;;;;;15.28;62.04;95490.47;5000802;28;20025;-96
2022/10/29 02:36:56;;;;;;;5.90;2.17;;;;;;;15.29;62.12;95488.63;5000807;28;20026;-94
2022/10/29 02:39:31;;;;;;;;;;;;;;;;;;;;;
2022/10/29 02:41:59;;;;;;;6.97;2.58;;;;;;;15.24;64.24;95482.28;5017044;28;20022;-95
2022/10/29 02:44:25;;;;;;;9.07;2.83;;;;;;;15.44;63.66;95482.50;5001011;28;20093;-95
2022/10/29 02:46:50;;;;;;;5.95;2.80;;;;;;;15.46;65.50;95480.38;5001001;28;20108;-95
2022/10/29 02:49:16;;;;;;;6.70;2.70;;;;;;;15.41;66.05;95475.88;5017837;28;20076;-95
2022/10/29 02:51:49;;;;;;;8.13;2.80;;;;;;;15.40;66.54;95472.47;5016758;28;20030;-95
2022/10/29 02:54:14;;;;;;;9.73;2.73;;;;;;;15.34;67.40;95473.53;5017198;28;20076;-95
2022/10/29 02:56:50;;;;;;;;;;;;;;;;;;;;;
2022/10/29 03:02:40;;;;;;;13.43;2.97;;;;;;;15.19;66.29;95476.22;5017712;28;20099;-95
2022/10/29 03:08:30;;;;;;;7.10;2.60;;;;;;;15.35;64.98;95483.06;5017984;28;20037;-96
2022/10/29 03:10:59;;;;;;;8.57;2.67;;;;;;;15.33;66.53;95479.88;5016450;28;20025;-95
2022/10/29 03:13:26;;;;;;;8.32;3.03;;;;;;;15.18;68.18;95478.09;5016531;28;20026;-95
2022/10/29 03:15:52;;;;;;;9.43;2.90;;;;;;;15.09;68.26;95479.69;5016761;28;20022;-95
2022/10/29 03:18:24;;;;;;;9.07;2.83;;;;;;;15.16;65.08;95479.41;5017498;28;20037;-95
2022/10/29 03:20:50;;;;;;;7.37;2.27;;;;;;;15.30;60.94;95475.16;5017565;28;20030;-96
2022/10/29 03:23:18;;;;;;;7.93;1.63;;;;;;;15.29;60.66;95478.06;5016965;28;20091;-94
2022/10/29 03:25:53;;;;;;;;;;;;;;;;;;;;;
2022/10/29 03:28:26;;;;;;;9.43;1.95;;;;;;;15.18;57.91;95464.09;5017662;28;20028;-95
2022/10/29 03:30:55;;;;;;;9.13;1.95;;;;;;;15.24;56.43;95463.81;5000439;28;20030;-95
2022/10/29 03:33:30;;;;;;;;;;;;;;;;;;;;;
2022/10/29 03:36:03;;;;;;;2.47;1.40;;;;;;;15.21;57.69;95471.50;5017371;28;20300;-96
2022/10/29 03:38:29;;;;;;;5.03;1.77;;;;;;;14.93;57.94;95476.31;5017409;28;20045;-94
2022/10/29 03:40:54;;;;;;;6.15;1.60;;;;;;;15.03;56.12;95467.59;5017287;28;20026;-95
2022/10/29 03:43:23;;;;;;;5.85;1.40;;;;;;;15.01;56.47;95465.22;5017165;28;20034;-94
2022/10/29 03:46:04;;;;;;;5.88;1.58;;;;;;;15.18;56.96;95464.91;5017235;28;20049;-95
2022/10/29 03:48:30;;;;;;;6.35;1.92;;;;;;;15.20;57.69;95467.25;5017252;28;20423;-95
2022/10/29 03:51:06;;;;;;;;;;;;;;;;;;;;;
2022/10/29 03:53:32;;;;;;;3.83;1.60;;;;;;;15.00;57.85;95468.91;5030025;28;20054;-96
2022/10/29 03:56:11;;;;;;;;;;;;;;;;;;;;;
2022/10/29 03:58:41;;;;;;;5.75;1.80;;;;;;;14.94;58.39;95467.34;5034345;28;20052;-96
2022/10/29 04:01:10;;;;;;;5.70;1.90;;;;;;;14.98;58.11;95471.03;5037285;28;20014;-96
2022/10/29 04:19:53;;;;;;;7.72;2.13;;;;;;;15.25;57.66;95470.66;5228583;22;20080;-88
2022/10/29 04:22:21;;;;;;;4.28;1.58;;;;;;;15.21;58.01;95474.91;5021849;28;20033;-88
2022/10/29 04:24:49;;;;;;;4.55;1.83;;;;;;;15.07;58.47;95469.44;5006025;28;20334;-88
2022/10/29 04:27:24;;;;;;;10.63;1.70;;;;;;;15.00;58.27;95463.63;4995104;28;20036;-88
2022/10/29 04:29:49;;;;;;;3.67;1.80;;;;;;;14.89;59.27;95472.63;4987411;28;20033;-89
2022/10/29 04:32:17;;;;;;;5.28;1.70;;;;;;;14.81;59.92;95480.03;5002018;28;20025;-88
2022/10/29 04:34:45;;;;;;;4.00;1.65;;;;;;;14.78;58.89;95469.22;5019964;28;20026;-88
2022/10/29 04:37:12;;;;;;;8.40;1.80;;;;;;;14.87;57.43;95478.19;5002514;28;20418;-88
2022/10/29 04:39:50;;;;;;;;;;;;;;;;;;;;;
2022/10/29 04:42:16;;;;;;;6.78;1.23;;;;;;;15.11;56.83;95475.75;5002508;28;20020;-88
2022/10/29 04:44:47;;;;;;;11.00;1.30;;;;;;;15.07;56.91;95472.06;5002066;28;20128;-88
2022/10/29 04:47:33;;;;;;;;;;;;;;;;;;;;;
2022/10/29 04:50:17;;;;;;;4.18;1.20;;;;;;;14.90;56.08;95471.56;5018174;28;20032;-89
2022/10/29 04:52:58;;;;;;;3.85;1.45;;;;;;;14.92;56.30;95466.81;5001884;28;20037;-89
2022/10/29 04:55:33;;;;;;;;;;;;;;;;;;;;;
2022/10/29 04:58:07;;;;;;;7.88;1.38;;;;;;;15.04;54.93;95472.59;5003130;28;20034;-89
2022/10/29 05:00:47;;;;;;;;;;;;;;;;;;;;;
2022/10/29 05:03:23;;;;;;;;;;;;;;;;;;;;;
2022/10/29 05:05:59;;;;;;;;;;;;;;;;;;;;;
2022/10/29 05:08:34;;;;;;;2.08;0.55;;;;;;;14.79;54.50;95484.78;5002368;28;20032;-89
2022/10/29 05:11:12;;;;;;;;;;;;;;;;;;;;;
2022/10/29 05:13:50;;;;;;;;;;;;;;;;;;;;;
2022/10/29 05:16:23;;;;;;;3.72;1.00;;;;;;;14.84;53.69;95474.22;5016935;28;20334;-88
2022/10/29 05:18:50;;;;;;;3.90;0.88;;;;;;;14.79;54.12;95474.25;4986410;28;20037;-87
2022/10/29 05:21:16;;;;;;;5.25;1.27;;;;;;;14.55;55.95;95474.75;5001504;28;20025;-88
2022/10/29 05:23:44;;;;;;;2.00;0.80;;;;;;;14.81;53.16;95471.31;5000970;28;20096;-88
2022/10/29 05:26:16;;;;;;;3.22;1.02;;;;;;;14.33;56.61;95468.94;4986057;28;20036;-89
2022/10/29 05:28:49;;;;;;;2.60;0.80;;;;;;;14.75;53.86;95469.75;4988252;28;20431;-88
2022/10/29 05:31:14;;;;;;;8.27;1.13;;;;;;;14.77;54.12;95471.06;5002414;28;20128;-88
2022/10/29 05:33:40;;;;;;;2.60;0.73;;;;;;;14.63;54.45;95472.63;5018846;28;20112;-88
2022/10/29 05:36:10;;;;;;;1.60;0.88;;;;;;;14.60;54.26;95466.06;5018728;28;20030;-88
2022/10/29 05:38:36;;;;;;;2.28;0.77;;;;;;;14.49;55.36;95470.56;5001369;28;20057;-89
2022/10/29 05:41:01;;;;;;;2.28;1.00;;;;;;;14.48;54.97;95473.44;5005716;28;20071;-88
2022/10/29 05:43:29;;;;;;;7.85;1.13;;;;;;;14.42;55.96;95472.66;5020564;28;20029;-88
2022/10/29 05:45:55;;;;;;;3.70;1.25;;;;;;;14.35;56.46;95472.13;5038461;28;20079;-88
2022/10/29 05:48:28;;;;;;;4.10;1.25;;;;;;;14.35;56.81;95465.00;5020523;28;20041;-87
2022/10/29 05:51:03;;;;;;;;;;;;;;;;;;;;;
2022/10/29 05:53:36;;;;;;;7.32;1.45;;;;;;;14.36;57.77;95458.66;5041543;28;20024;-88
2022/10/29 05:56:02;;;;;;;5.40;1.30;;;;;;;14.50;56.75;95466.06;5040514;28;20025;-87
2022/10/29 05:58:47;;;;;;;6.20;1.40;;;;;;;14.51;56.75;95472.91;5024057;28;20040;-88
2022/10/29 06:01:20;;;;;;;2.88;1.20;;;;;;;14.42;57.83;95470.00;5057578;28;20052;-88
2022/10/29 06:03:45;;;;;;;1.85;0.63;;;;;;;14.39;56.16;95475.81;5041616;28;20103;-88
2022/10/29 06:06:14;;;;;;;1.48;0.60;;;;;;;14.46;54.60;95471.06;5023952;28;20040;-88
2022/10/29 06:08:43;;;;;;;1.42;0.70;;;;;;;14.69;54.86;95464.44;5023401;28;20064;-88
2022/10/29 06:11:08;;;;;;;1.70;0.60;;;;;;;14.77;55.06;95471.06;5037501;28;20049;-88
2022/10/29 06:13:39;;;;;;;2.13;0.68;;;;;;;14.82;54.81;95457.88;5038013;28;20057;-88
2022/10/29 06:16:05;;;;;;;4.32;0.73;;;;;;;14.85;54.02;95456.56;5037766;28;20377;-88
2022/10/29 06:18:43;;;;;;;1.75;0.80;;;;;;;14.62;56.69;95461.28;5037623;28;20033;-87
2022/10/29 06:21:16;;;;;;;1.15;0.47;;;;;;;14.42;58.01;95457.63;5019969;28;20029;-87
2022/10/29 06:24:00;;;;;;;;;;;;;;;;;;;;;
2022/10/29 06:26:28;;;;;;;0.95;0.70;;;;;;;15.33;56.56;95466.69;5021218;28;20014;-87
2022/10/29 06:28:53;;;;;;;2.25;0.68;;;;;;;15.26;56.37;95472.25;5037525;28;20053;-87
2022/10/29 06:31:29;;;;;;;;;;;;;;;;;;;;;
2022/10/29 06:34:16;;;;;;;3.60;0.70;;;;;;;15.47;54.34;95474.81;5037297;28;20052;-88
2022/10/29 06:36:41;;;;;;;5.05;0.85;;;;;;;15.64;55.08;95466.56;5022107;28;20029;-87
2022/10/29 06:39:06;;;;;;;3.60;0.70;;;;;;;15.71;56.36;95465.47;5003602;28;20036;-87
2022/10/29 06:41:32;;;;;;;3.03;0.88;;;;;;;15.80;55.25;95466.47;5037000;28;20330;-87
2022/10/29 06:44:00;;;;;;;3.13;0.70;;;;;;;16.11;53.73;95469.72;5037226;28;20026;-87
2022/10/29 06:46:29;;;;;;;2.22;0.70;;;;;;;16.31;54.42;95483.09;5036930;28;20021;-88
2022/10/29 06:48:59;;;;;;;1.58;0.63;;;;;;;16.39;56.12;95479.88;5003216;28;20029;-87
2022/10/29 06:51:25;;;;;;;1.60;0.65;;;;;;;16.42;57.01;95487.25;5019669;28;20075;-88
2022/10/29 06:53:52;;;;;;;2.53;1.05;;;;;;;16.51;56.81;95493.53;5019736;28;20033;-88
2022/10/29 06:56:24;;;;;;;3.60;0.80;;;;;;;16.54;55.67;95492.97;5020840;28;20056;-88
2022/10/29 06:58:55;;;;;;;2.92;1.52;;;;;;;16.67;55.18;95491.53;5037039;28;20493;-87
2022/10/29 07:01:28;;;;;;;2.90;0.95;;;;;;;16.67;55.98;95491.53;5036680;28;20052;-87
2022/10/29 07:04:06;;;;;;;;;;;;;;;;;;;;;
2022/10/29 07:06:35;;;;;;;3.15;0.70;;;;;;;16.85;62.98;95485.81;5027758;28;20018;-87
2022/10/29 07:09:00;;;;;;;5.07;0.82;;;;;;;17.04;63.83;95496.53;5017187;28;20316;-87
2022/10/29 07:11:28;;;;;;;2.72;1.20;;;;;;;17.12;63.95;95492.47;5016627;28;20025;-88
2022/10/29 07:13:53;;;;;;;1.45;0.63;;;;;;;17.16;64.54;95494.28;5031849;28;20342;-87
2022/10/29 07:16:19;;;;;;;3.85;1.00;;;;;;;17.22;66.27;95489.72;5036683;28;20039;-87
2022/10/29 07:18:47;;;;;;;2.75;0.90;;;;;;;17.16;67.93;95502.22;5036533;28;20033;-87
2022/10/29 07:21:12;;;;;;;3.10;1.30;;;;;;;17.22;67.34;95506.38;5036600;28;20025;-87
2022/10/29 07:23:38;;;;;;;3.80;1.08;;;;;;;17.30;72.75;95502.31;5019369;28;20025;-88
2022/10/29 07:26:03;;;;;;;4.50;1.40;;;;;;;17.31;76.41;95506.56;5036757;28;20028;-87
2022/10/29 07:28:29;;;;;;;2.75;1.13;;;;;;;17.43;75.67;95506.16;5019193;28;20037;-88
2022/10/29 07:30:58;;;;;;;2.50;1.17;;;;;;;17.50;75.62;95511.09;5018698;28;20087;-88
2022/10/29 07:33:23;;;;;;;4.28;1.20;;;;;;;17.53;73.91;95521.16;5018871;28;20123;-88
2022/10/29 07:35:49;;;;;;;3.13;1.20;;;;;;;17.45;79.71;95521.78;5036575;28;20518;-87
2022/10/29 07:38:14;;;;;;;4.00;1.30;;;;;;;17.03;83.42;95527.50;5002954;28;20039;-87
2022/10/29 07:40:49;;;;;;;4.53;1.15;;;;;;;17.04;87.25;95525.63;5039340;28;20025;-88
2022/10/29 07:43:16;;;;;;;4.95;1.70;;;;;;;17.12;77.21;95535.59;5023193;28;20044;-88
2022/10/29 07:45:43;;;;;;;2.72;1.30;;;;;;;17.53;73.87;95521.16;5023094;28;20033;-88
2022/10/29 07:48:11;;;;;;;5.07;1.30;;;;;;;17.66;67.24;95528.41;5006487;28;20430;-89
2022/10/29 07:50:37;;;;;;;5.43;1.63;;;;;;;17.74;61.12;95526.19;5020433;28;20040;-87
2022/10/29 07:53:04;;;;;;;1.73;1.17;;;;;;;17.96;61.87;95525.66;5019077;28;20064;-88
2022/10/29 07:55:51;;;;;;;;;;;;;;;;;;;;;
2022/10/29 07:58:17;;;;;;;4.28;1.45;;;;;;;18.23;66.06;95527.72;5023385;28;20315;-89
2022/10/29 08:00:42;;;;;;;6.93;1.42;;;;;;;18.17;70.02;95528.84;5029561;28;20029;-88
2022/10/29 08:03:09;;;;;;;2.65;1.33;;;;;;;18.44;69.17;95524.75;5021512;28;20029;-89
2022/10/29 08:05:35;;;;;;;4.72;1.33;;;;;;;18.49;66.80;95526.53;5002987;28;20030;-88
2022/10/29 08:08:06;;;;;;;3.13;1.40;;;;;;;18.58;65.10;95524.00;5020397;28;20036;-90
2022/10/29 08:10:37;;;;;;;2.22;1.40;;;;;;;18.67;63.30;95521.47;5018235;28;20426;-89
2022/10/29 08:13:38;;;;;;;;;;;;;;;;;;;;;
2022/10/29 08:16:06;;;;;;;9.50;1.50;;;;;;;18.88;61.03;95527.22;5017848;28;20038;-89
2022/10/29 08:18:32;;;;;;;2.60;1.17;;;;;;;18.93;59.94;95522.63;5022742;28;20040;-88
2022/10/29 08:20:59;;;;;;;3.47;1.42;;;;;;;19.03;60.90;95526.22;5004791;28;20037;-88
2022/10/29 08:23:25;;;;;;;2.42;1.23;;;;;;;19.06;61.20;95526.41;5021791;28;20033;-89
2022/10/29 08:26:06;;;;;;;;;;;;;;;;;;;;;
2022/10/29 08:28:49;;;;;;;2.85;1.05;;;;;;;18.98;54.55;95529.72;5019830;28;20032;-88
2022/10/29 08:32:07;;;;;;;;;;;;;;;;;;;;;
2022/10/29 08:34:42;;;;;;;4.68;1.10;;;;;;;19.20;59.67;95536.25;5011126;28;20042;-89
2022/10/29 08:37:10;;;;;;;3.28;1.33;;;;;;;19.24;60.37;95536.47;5001425;28;20025;-90
2022/10/29 08:39:51;;;;;;;3.35;1.23;;;;;;;19.30;58.25;95530.00;5021739;28;20029;-89
2022/10/29 08:43:03;;;;;;;7.25;1.30;;;;;;;19.42;57.92;95532.16;5002103;28;20038;-88
2022/10/29 08:45:38;;;;;;;7.85;1.02;;;;;;;19.42;60.12;95532.16;4959050;29;20027;-89
2022/10/29 08:51:38;;;;;;;3.45;1.30;;;;;;;19.68;57.49;95534.31;5004148;28;20030;-89
2022/10/29 08:54:13;;;;;;;2.95;1.35;;;;;;;19.74;56.13;95528.59;5002720;28;20034;-90
2022/10/29 08:57:05;;;;;;;4.75;1.20;;;;;;;19.79;57.29;95527.69;4985633;28;20033;-89
2022/10/29 09:00:04;;;;;;;7.78;1.67;;;;;;;19.73;58.63;95529.69;5002283;28;20049;-89
2022/10/29 09:02:29;;;;;;;7.78;1.27;;;;;;;19.81;59.79;95524.75;4998897;28;20052;-90
2022/10/29 09:04:55;;;;;;;4.35;1.40;;;;;;;19.72;58.18;95522.00;5021608;28;20029;-88
2022/10/29 09:07:55;;;;;;;7.88;1.33;;;;;;;19.95;58.58;95522.09;5021690;28;20029;-87
2022/10/29 09:10:42;;;;;;;4.13;1.45;;;;;;;20.08;57.50;95525.81;4981356;28;20042;-87
2022/10/29 09:13:31;;;;;;;4.75;2.17;;;;;;;20.30;57.48;95525.84;5022954;28;20034;-87
2022/10/29 09:16:26;;;;;;;;;;;;;;;;;;;;;
2022/10/29 09:19:15;;;;;;;5.10;1.40;;;;;;;20.35;56.14;95530.25;5038531;28;20035;-88
2022/10/29 09:21:51;;;;;;;6.10;1.35;;;;;;;20.54;54.29;95526.66;5005639;28;20091;-87
2022/10/29 09:24:34;;;;;;;7.35;1.58;;;;;;;20.49;52.65;95524.88;5033283;28;20446;-87
2022/10/29 09:27:12;;;;;;;8.20;1.70;;;;;;;20.51;54.03;95514.72;5001000;28;20029;-89
2022/10/29 09:30:16;;;;;;;6.10;1.65;;;;;;;20.67;54.49;95517.03;4985710;28;20025;-89
2022/10/29 09:32:51;;;;;;;8.52;1.70;;;;;;;20.77;55.67;95509.56;5001327;28;20083;-88
2022/10/29 09:35:21;;;;;;;3.30;1.35;;;;;;;20.92;53.81;95514.84;5001166;28;20060;-88
2022/10/29 09:37:58;;;;;;;3.15;1.48;;;;;;;21.03;54.38;95519.59;5004643;28;20029;-89
2022/10/29 09:40:43;;;;;;;2.83;1.25;;;;;;;20.95;55.03;95514.22;5004231;28;20029;-89
2022/10/29 09:43:30;;;;;;;11.63;1.70;;;;;;;21.03;54.31;95514.28;5018567;28;20037;-88
2022/10/29 09:45:58;;;;;;;5.45;1.38;;;;;;;20.98;53.87;95514.41;5038193;28;20417;-88
2022/10/29 09:49:00;;;;;;;5.68;1.90;;;;;;;21.11;52.59;95511.97;5038129;28;20456;-89
2022/10/29 09:51:55;;;;;;;3.05;1.45;;;;;;;21.38;52.94;95507.53;5037690;28;20025;-88
2022/10/29 09:54:25;;;;;;;2.80;1.30;;;;;;;21.40;52.66;95508.00;5000800;28;20026;-89
2022/10/29 09:56:51;;;;;;;6.78;1.58;;;;;;;21.36;53.46;95499.84;4985047;28;20030;-88
2022/10/29 09:59:32;;;;;;;6.28;1.40;;;;;;;21.51;53.24;95500.50;4984797;28;20423;-88
2022/10/29 10:01:58;;;;;;;5.70;1.10;;;;;;;21.57;52.88;95504.59;4999896;28;20064;-88
2022/10/29 10:04:39;;;;;;;5.10;1.60;;;;;;;21.69;51.67;95504.03;5000747;28;20453;-89
2022/10/29 10:07:10;;;;;;;3.30;1.35;;;;;;;21.67;53.17;95501.66;5000499;28;20026;-87
2022/10/29 10:09:55;;;;;;;1.52;1.10;;;;;;;21.88;52.56;95493.88;5015719;28;20021;-87
2022/10/29 10:12:23;;;;;;;5.68;1.60;;;;;;;22.01;52.62;95486.81;5016578;28;20025;-87
2022/10/29 10:15:03;;;;;;;2.80;1.33;;;;;;;22.09;53.19;95482.56;5003884;28;20104;-87
2022/10/29 10:17:59;;;;;;;6.78;1.50;;;;;;;22.22;52.38;95486.19;5020447;28;20453;-87
2022/10/29 10:20:32;;;;;;;6.57;1.20;;;;;;;22.18;51.72;95482.59;5020043;28;20029;-87
2022/10/29 10:22:57;;;;;;;;;;;;;;;22.31;51.70;95473.63;5020484;28;20025;-87
2022/10/29 10:25:43;;;;;;;4.50;1.48;;;;;;;22.40;50.98;95467.50;5020071;28;20211;-89
2022/10/29 10:28:25;;;;;;;4.78;1.35;;;;;;;22.46;52.42;95467.00;5019213;28;20037;-88
2022/10/29 10:31:03;;;;;;;4.40;1.20;;;;;;;22.58;51.34;95468.28;5004436;28;20084;-87
2022/10/29 10:33:31;;;;;;;3.35;1.27;;;;;;;22.65;51.45;95462.47;5057189;28;20033;-87
2022/10/29 10:36:01;;;;;;;5.93;1.15;;;;;;;22.73;50.74;95465.09;5039520;28;20071;-88
2022/10/29 10:38:27;;;;;;;2.33;0.90;;;;;;;22.73;48.94;95449.06;5039347;28;20049;-88
2022/10/29 10:41:00;;;;;;;2.95;1.00;;;;;;;22.83;48.02;95457.84;5002786;28;20056;-88
2022/10/29 10:43:25;;;;;;;4.18;0.90;;;;;;;22.78;45.89;95460.69;5000136;28;20025;-87
2022/10/29 10:45:59;;;;;;;7.53;1.02;;;;;;;23.05;43.98;95458.72;5000246;28;20116;-87
2022/10/29 10:48:28;;;;;;;2.97;0.73;;;;;;;23.07;43.25;95454.63;4999926;28;20354;-87
2022/10/29 10:51:23;;;;;;;2.45;1.13;;;;;;;23.25;43.29;95449.19;5000609;28;20030;-87
2022/10/29 10:53:49;;;;;;;7.05;1.20;;;;;;;23.32;43.84;95451.38;5017705;28;20030;-88
2022/10/29 10:56:20;;;;;;;1.25;0.80;;;;;;;23.39;43.25;95446.34;4999836;28;20124;-87
2022/10/29 10:58:57;;;;;;;3.85;0.73;;;;;;;23.43;43.49;95447.25;4999781;28;20030;-87
2022/10/29 11:01:28;;;;;;;8.38;1.13;;;;;;;23.56;44.01;95445.44;4999935;28;20343;-87
2022/10/29 11:04:02;;;;;;;2.88;1.00;;;;;;;23.68;44.21;95434.03;5000273;28;20030;-87
2022/10/29 11:06:32;;;;;;;7.22;1.30;;;;;;;23.70;44.23;95437.94;4999865;28;20018;-87
2022/10/29 11:09:25;;;;;;;2.20;1.10;;;;;;;23.75;43.25;95436.97;4999742;28;20022;-87
2022/10/29 11:11:57;;;;;;;3.30;1.20;;;;;;;23.88;42.72;95427.09;4976087;28;20423;-87
2022/10/29 11:14:33;;;;;;;2.70;1.20;;;;;;;23.96;42.32;95434.28;4982928;28;20506;-87
2022/10/29 11:17:11;;;;;;;5.93;1.30;;;;;;;24.05;42.43;95428.88;4983952;28;20022;-87
2022/10/29 11:19:54;;;;;;;1.58;0.93;;;;;;;24.03;41.39;95430.31;5017063;28;20052;-87
2022/10/29 11:22:41;;;;;;;4.35;1.33;;;;;;;24.17;40.59;95419.34;5000793;28;20076;-87
2022/10/29 11:25:20;;;;;;;3.35;1.15;;;;;;;24.31;41.26;95414.50;5015744;28;20480;-87
2022/10/29 11:28:18;;;;;;;5.60;1.20;;;;;;;24.31;39.30;95411.81;5011501;28;20030;-87
2022/10/29 11:30:52;;;;;;;6.18;1.20;;;;;;;24.21;39.59;95417.56;5018925;28;20026;-86
2022/10/29 11:33:46;;;;;;;3.30;1.02;;;;;;;24.33;40.73;95414.16;5019227;28;20032;-87
2022/10/29 11:36:17;;;;;;;5.00;1.23;;;;;;;24.37;40.20;95405.13;5002963;28;20037;-88
2022/10/29 11:38:56;;;;;;;4.55;1.30;;;;;;;24.55;41.29;95402.28;5019352;28;20152;-86
2022/10/29 11:41:33;;;;;;;4.38;1.65;;;;;;;24.48;40.42;95397.47;5018760;28;20032;-88
2022/10/29 11:43:58;;;;;;;6.10;1.48;;;;;;;24.73;38.74;95402.09;5002534;28;20048;-87
2022/10/29 11:47:04;;;;;;;3.95;1.83;;;;;;;24.78;39.24;95399.19;5053873;28;20029;-87
2022/10/29 11:49:37;;;;;;;5.78;1.88;;;;;;;24.80;40.53;95392.41;5038483;28;20036;-88
2022/10/29 11:52:17;;;;;;;4.70;1.50;;;;;;;24.97;40.39;95394.09;5056025;28;20021;-88
2022/10/29 11:55:04;;;;;;;5.90;1.50;;;;;;;24.99;41.05;95394.53;5039019;28;20115;-87
2022/10/29 11:57:38;;;;;;;4.25;1.75;;;;;;;25.05;39.96;95389.75;5055969;28;20035;-87
2022/10/29 12:00:15;;;;;;;10.85;1.80;;;;;;;25.10;40.50;95394.88;5038623;28;20083;-88
2022/10/29 12:02:55;;;;;;;4.85;2.13;;;;;;;25.15;40.73;95393.06;5056062;28;20060;-89
2022/10/29 12:05:41;;;;;;;2.83;1.60;;;;;;;25.22;39.49;95385.25;5013279;28;20029;-89
2022/10/29 12:08:21;;;;;;;4.03;1.55;;;;;;;25.14;40.57;95381.56;5002683;28;20025;-90
2022/10/29 12:11:21;;;;;;;8.48;2.00;;;;;;;25.29;39.01;95376.66;5035778;28;20646;-91
2022/10/29 12:13:58;;;;;;;3.83;1.75;;;;;;;25.19;40.87;95375.22;5036011;28;20357;-90
2022/10/29 12:16:35;;;;;;;3.10;1.70;;;;;;;25.24;40.71;95373.06;5035984;28;20036;-88
2022/10/29 12:19:27;;;;;;;4.57;2.17;;;;;;;25.23;41.76;95371.50;5018447;28;20056;-89
2022/10/29 12:22:02;;;;;;;9.98;2.25;;;;;;;25.06;42.89;95363.69;5018683;28;20025;-90
2022/10/29 12:24:42;;;;;;;7.03;2.15;;;;;;;25.53;41.69;95365.88;5018835;28;20116;-90
2022/10/29 12:27:13;;;;;;;6.28;2.40;;;;;;;25.57;42.37;95362.53;5039821;28;20021;-90
2022/10/29 12:29:49;;;;;;;8.63;2.50;;;;;;;25.67;42.30;95357.47;5022324;28;20025;-91
2022/10/29 12:32:46;;;;;;;;;;;;;;;;;;;;;
2022/10/29 12:35:37;;;;;;;8.88;2.75;;;;;;;25.80;43.34;95357.44;5023218;28;20036;-88
2022/10/29 12:38:26;;;;;;;7.22;2.45;;;;;;;25.82;42.74;95350.59;5021469;28;20060;-87
2022/10/29 12:41:23;;;;;;;13.15;3.03;;;;;;;25.90;43.06;95348.91;5005780;28;20029;-87
2022/10/29 12:43:50;;;;;;;18.00;3.65;;;;;;;25.83;43.85;95343.31;5022103;28;20048;-90
2022/10/29 12:46:32;;;;;;;9.85;3.10;;;;;;;25.91;45.45;95349.66;5005626;28;20029;-88
2022/10/29 12:49:07;;;;;;;8.20;3.40;;;;;;;25.82;44.50;95347.13;5039223;28;20025;-87
2022/10/29 12:52:01;;;;;;;10.27;3.70;;;;;;;25.71;46.47;95344.16;5021224;28;20034;-89
2022/10/29 12:54:27;;;;;;;10.75;3.40;;;;;;;25.74;46.16;95340.78;5022030;28;20049;-88
2022/10/29 12:57:02;;;;;;;7.03;3.33;;;;;;;25.63;46.95;95340.50;5021530;28;20073;-89
2022/10/29 12:59:31;;;;;;;13.70;3.55;;;;;;;25.85;47.31;95334.94;5005450;28;20037;-87
2022/10/29 13:02:24;;;;;;;14.68;3.72;;;;;;;26.04;46.33;95329.69;5021102;28;20342;-87
2022/10/29 13:05:08;;;;;;;;;;;;;;;25.91;46.32;95334.34;5039406;28;20136;-88
2022/10/29 13:08:00;;;;;;;7.40;3.42;;;;;;;25.94;47.93;95328.28;5021659;28;19909;-88
2022/10/29 13:10:28;;;;;;;12.20;3.67;;;;;;;26.09;45.74;95328.66;5020906;28;20025;-90
2022/10/29 13:12:53;;;;;;;6.97;3.53;;;;;;;26.01;45.30;95332.28;5021318;28;20438;-88
2022/10/29 13:15:20;;;;;;;18.08;3.65;;;;;;;26.15;46.58;95329.19;5038647;28;20029;-89
2022/10/29 13:17:48;;;;;;;14.07;4.20;;;;;;;25.97;47.14;95326.84;5005116;28;20033;-92
2022/10/29 13:20:17;;;;;;;9.48;4.18;;;;;;;26.23;46.40;95322.91;5020986;28;20033;-89
2022/10/29 13:22:45;;;;;;;14.13;4.50;;;;;;;26.19;47.05;95319.34;5038581;28;20029;-89
2022/10/29 13:25:35;;;;;;;14.32;3.63;;;;;;;25.92;49.42;95327.84;5007793;28;20041;-88